Wetterdaten: Woche 17.09.07 - 23.09.07 (KW38)
Datum Zeit Temperatur Luftfeuchte Luftdruck Niederschlag
17.09.2007 00:00 13,6 C 84 % 1018 hPa 0,0 l/m
17.09.2007 01:00 12,9 C 87 % 1018 hPa 0,0 l/m
17.09.2007 02:00 12,3 C 89 % 1017 hPa 0,0 l/m
17.09.2007 03:00 12,4 C 91 % 1017 hPa 0,0 l/m
17.09.2007 04:00 12,2 C 93 % 1017 hPa 0,0 l/m
17.09.2007 05:00 11,6 C 93 % 1017 hPa 0,0 l/m
17.09.2007 06:00 11,3 C 94 % 1017 hPa 0,0 l/m
17.09.2007 07:00 11,7 C 95 % 1017 hPa 0,0 l/m
17.09.2007 08:00 12,8 C 95 % 1017 hPa 0,0 l/m
17.09.2007 09:00 15,5 C 94 % 1017 hPa 0,0 l/m
17.09.2007 10:00 19,0 C 61 % 1017 hPa 0,0 l/m
17.09.2007 11:00 20,5 C 49 % 1017 hPa 0,0 l/m
17.09.2007 12:00 21,8 C 45 % 1016 hPa 0,0 l/m
17.09.2007 13:00 21,9 C 43 % 1016 hPa 0,0 l/m
17.09.2007 14:00 23,4 C 37 % 1015 hPa 0,0 l/m
17.09.2007 15:00 24,2 C 33 % 1015 hPa 0,0 l/m
17.09.2007 16:00 23,8 C 33 % 1014 hPa 0,0 l/m
17.09.2007 17:00 22,4 C 37 % 1014 hPa 0,0 l/m
17.09.2007 18:00 19,7 C 52 % 1014 hPa 0,0 l/m
17.09.2007 19:00 17,5 C 67 % 1013 hPa 0,0 l/m
17.09.2007 20:00 16,4 C 72 % 1013 hPa 0,0 l/m
17.09.2007 21:00 15,7 C 77 % 1013 hPa 0,0 l/m
17.09.2007 22:00 15,1 C 82 % 1013 hPa 0,0 l/m
17.09.2007 23:00 15,0 C 85 % 1012 hPa 0,0 l/m
18.09.2007 00:00 14,9 C 89 % 1012 hPa 2,0 l/m
18.09.2007 01:00 14,8 C 91 % 1011 hPa 0,0 l/m
18.09.2007 02:00 14,8 C 93 % 1011 hPa 0,0 l/m
18.09.2007 03:00 14,6 C 93 % 1010 hPa 2,0 l/m
18.09.2007 04:00 14,4 C 94 % 1010 hPa 3,0 l/m
18.09.2007 05:00 14,1 C 95 % 1010 hPa 2,0 l/m
18.09.2007 06:00 13,9 C 96 % 1010 hPa 1,0 l/m
18.09.2007 07:00 13,9 C 96 % 1011 hPa 0,0 l/m
18.09.2007 08:00 13,9 C 94 % 1011 hPa 0,0 l/m
18.09.2007 09:00 12,3 C 89 % 1012 hPa 1,0 l/m
18.09.2007 10:00 11,2 C 85 % 1014 hPa 0,0 l/m
18.09.2007 11:00 10,8 C 85 % 1016 hPa 1,0 l/m
18.09.2007 12:00 9,7 C 86 % 1017 hPa 2,0 l/m
18.09.2007 13:00 9,6 C 86 % 1018 hPa 0,0 l/m
18.09.2007 14:00 10,9 C 84 % 1018 hPa 0,0 l/m
18.09.2007 15:00 12,3 C 67 % 1019 hPa 0,0 l/m
18.09.2007 16:00 11,9 C 60 % 1019 hPa 0,0 l/m
18.09.2007 17:00 12,1 C 53 % 1020 hPa 0,0 l/m
18.09.2007 18:00 11,7 C 56 % 1020 hPa 0,0 l/m
18.09.2007 19:00 10,3 C 62 % 1022 hPa 0,0 l/m
18.09.2007 20:00 8,9 C 73 % 1023 hPa 0,0 l/m
18.09.2007 21:00 8,3 C 76 % 1023 hPa 1,0 l/m
18.09.2007 22:00 8,3 C 77 % 1024 hPa 0,0 l/m
18.09.2007 23:00 8,3 C 79 % 1024 hPa 0,0 l/m
19.09.2007 00:00 8,2 C 81 % 1024 hPa 0,0 l/m
19.09.2007 01:00 8,0 C 83 % 1024 hPa 0,0 l/m
19.09.2007 02:00 7,7 C 85 % 1025 hPa 0,0 l/m
19.09.2007 03:00 6,8 C 87 % 1025 hPa 0,0 l/m
19.09.2007 04:00 6,0 C 87 % 1024 hPa 0,0 l/m
19.09.2007 05:00 5,1 C 89 % 1024 hPa 0,0 l/m
19.09.2007 06:00 4,4 C 90 % 1025 hPa 0,0 l/m
19.09.2007 07:00 3,9 C 92 % 1025 hPa 0,0 l/m
19.09.2007 08:00 4,5 C 94 % 1025 hPa 0,0 l/m
19.09.2007 09:00 6,3 C 95 % 1025 hPa 0,0 l/m
19.09.2007 10:00 9,0 C 93 % 1025 hPa 0,0 l/m
19.09.2007 11:00 10,4 C 74 % 1025 hPa 0,0 l/m
19.09.2007 12:00 11,9 C 56 % 1025 hPa 0,0 l/m
19.09.2007 13:00 12,8 C 46 % 1025 hPa 0,0 l/m
19.09.2007 14:00 14,1 C 38 % 1025 hPa 0,0 l/m
19.09.2007 15:00 15,1 C 35 % 1025 hPa 0,0 l/m
19.09.2007 16:00 14,1 C 38 % 1025 hPa 0,0 l/m
19.09.2007 17:00 13,5 C 40 % 1024 hPa 0,0 l/m
19.09.2007 18:00 12,6 C 49 % 1024 hPa 0,0 l/m
19.09.2007 19:00 10,2 C 58 % 1025 hPa 0,0 l/m
19.09.2007 20:00 8,6 C 66 % 1025 hPa 0,0 l/m
19.09.2007 21:00 7,7 C 72 % 1025 hPa 0,0 l/m
19.09.2007 22:00 7,1 C 77 % 1025 hPa 0,0 l/m
19.09.2007 23:00 6,6 C 81 % 1026 hPa 0,0 l/m
20.09.2007 00:00 6,0 C 84 % 1025 hPa 0,0 l/m
20.09.2007 01:00 5,5 C 86 % 1026 hPa 0,0 l/m
20.09.2007 02:00 4,8 C 88 % 1026 hPa 0,0 l/m
20.09.2007 03:00 4,2 C 88 % 1025 hPa 0,0 l/m
20.09.2007 04:00 4,0 C 90 % 1026 hPa 0,0 l/m
20.09.2007 05:00 3,5 C 91 % 1025 hPa 0,0 l/m
20.09.2007 06:00 3,1 C 92 % 1025 hPa 0,0 l/m
20.09.2007 07:00 3,0 C 93 % 1025 hPa 0,0 l/m
20.09.2007 08:00 4,2 C 94 % 1026 hPa 0,0 l/m
20.09.2007 09:00 7,1 C 96 % 1026 hPa 0,0 l/m
20.09.2007 10:00 11,5 C 85 % 1026 hPa 0,0 l/m
20.09.2007 11:00 13,6 C 63 % 1026 hPa 0,0 l/m
20.09.2007 12:00 14,4 C 51 % 1026 hPa 0,0 l/m
20.09.2007 13:00 16,0 C 41 % 1026 hPa 0,0 l/m
20.09.2007 14:00 17,3 C 37 % 1025 hPa 0,0 l/m
20.09.2007 15:00 17,4 C 36 % 1025 hPa 0,0 l/m
20.09.2007 16:00 16,6 C 37 % 1025 hPa 0,0 l/m
20.09.2007 17:00 16,0 C 39 % 1025 hPa 0,0 l/m
20.09.2007 18:00 15,5 C 45 % 1025 hPa 0,0 l/m
20.09.2007 19:00 12,8 C 56 % 1025 hPa 0,0 l/m
20.09.2007 20:00 10,5 C 66 % 1025 hPa 0,0 l/m
20.09.2007 21:00 9,0 C 72 % 1026 hPa 0,0 l/m
20.09.2007 22:00 8,0 C 76 % 1026 hPa 0,0 l/m
20.09.2007 23:00 7,1 C 81 % 1026 hPa 0,0 l/m
21.09.2007 00:00 6,4 C 84 % 1026 hPa 0,0 l/m
21.09.2007 01:00 5,9 C 86 % 1026 hPa 0,0 l/m
21.09.2007 02:00 5,4 C 87 % 1026 hPa 0,0 l/m
21.09.2007 03:00 5,0 C 89 % 1026 hPa 0,0 l/m
21.09.2007 04:00 4,5 C 90 % 1026 hPa 0,0 l/m
21.09.2007 05:00 4,1 C 91 % 1026 hPa 0,0 l/m
21.09.2007 06:00 3,8 C 92 % 1026 hPa 0,0 l/m
21.09.2007 07:00 3,9 C 93 % 1026 hPa 0,0 l/m
21.09.2007 08:00 5,0 C 95 % 1026 hPa 0,0 l/m
21.09.2007 09:00 7,7 C 96 % 1026 hPa 0,0 l/m
21.09.2007 10:00 13,2 C 85 % 1026 hPa 0,0 l/m
21.09.2007 11:00 16,1 C 55 % 1026 hPa 0,0 l/m
21.09.2007 12:00 16,8 C 45 % 1025 hPa 0,0 l/m
21.09.2007 13:00 18,9 C 38 % 1025 hPa 0,0 l/m
21.09.2007 14:00 21,0 C 34 % 1025 hPa 0,0 l/m
21.09.2007 15:00 21,7 C 32 % 1024 hPa 0,0 l/m
21.09.2007 16:00 20,8 C 32 % 1023 hPa 0,0 l/m
21.09.2007 17:00 19,7 C 40 % 1023 hPa 0,0 l/m
21.09.2007 18:00 17,9 C 53 % 1023 hPa 0,0 l/m
21.09.2007 19:00 15,6 C 61 % 1023 hPa 0,0 l/m
21.09.2007 20:00 13,5 C 69 % 1024 hPa 0,0 l/m
21.09.2007 21:00 11,8 C 74 % 1024 hPa 0,0 l/m
21.09.2007 22:00 10,4 C 79 % 1024 hPa 0,0 l/m
21.09.2007 23:00 9,4 C 83 % 1024 hPa 0,0 l/m
22.09.2007 00:00 8,5 C 85 % 1024 hPa 0,0 l/m
22.09.2007 01:00 7,7 C 86 % 1024 hPa 0,0 l/m
22.09.2007 02:00 7,1 C 88 % 1024 hPa 0,0 l/m
22.09.2007 03:00 6,4 C 90 % 1024 hPa 0,0 l/m
22.09.2007 04:00 6,0 C 91 % 1024 hPa 0,0 l/m
22.09.2007 05:00 5,9 C 92 % 1024 hPa 0,0 l/m
22.09.2007 06:00 5,7 C 93 % 1024 hPa 0,0 l/m
22.09.2007 07:00 5,4 C 94 % 1025 hPa 0,0 l/m
22.09.2007 08:00 6,4 C 95 % 1025 hPa 0,0 l/m
22.09.2007 09:00 9,5 C 96 % 1025 hPa 0,0 l/m
22.09.2007 10:00 13,8 C 93 % 1025 hPa 0,0 l/m
22.09.2007 11:00 16,9 C 70 % 1025 hPa 0,0 l/m
22.09.2007 12:00 18,7 C 60 % 1025 hPa 0,0 l/m
22.09.2007 13:00 20,8 C 48 % 1024 hPa 0,0 l/m
22.09.2007 14:00 22,8 C 35 % 1024 hPa 0,0 l/m
22.09.2007 15:00 23,4 C 34 % 1024 hPa 0,0 l/m
22.09.2007 16:00 22,3 C 36 % 1023 hPa 0,0 l/m
22.09.2007 17:00 21,2 C 42 % 1023 hPa 0,0 l/m
22.09.2007 18:00 19,3 C 55 % 1023 hPa 0,0 l/m
22.09.2007 19:00 16,8 C 65 % 1024 hPa 0,0 l/m
22.09.2007 20:00 14,9 C 70 % 1024 hPa 0,0 l/m
22.09.2007 21:00 13,8 C 76 % 1024 hPa 0,0 l/m
22.09.2007 22:00 13,0 C 81 % 1024 hPa 0,0 l/m
22.09.2007 23:00 12,2 C 84 % 1024 hPa 0,0 l/m
23.09.2007 00:00 11,4 C 86 % 1025 hPa 0,0 l/m
23.09.2007 01:00 10,6 C 89 % 1025 hPa 0,0 l/m
23.09.2007 02:00 9,9 C 90 % 1025 hPa 0,0 l/m
23.09.2007 03:00 9,2 C 91 % 1025 hPa 0,0 l/m
23.09.2007 04:00 8,4 C 91 % 1024 hPa 0,0 l/m
23.09.2007 05:00 8,0 C 92 % 1024 hPa 0,0 l/m
23.09.2007 06:00 7,8 C 93 % 1024 hPa 0,0 l/m
23.09.2007 07:00 8,0 C 94 % 1025 hPa 0,0 l/m
23.09.2007 08:00 8,2 C 95 % 1025 hPa 0,0 l/m
23.09.2007 09:00 11,0 C 96 % 1025 hPa 0,0 l/m
23.09.2007 10:00 16,1 C 89 % 1025 hPa 0,0 l/m
23.09.2007 11:00 18,8 C 63 % 1025 hPa 0,0 l/m
23.09.2007 12:00 19,6 C 55 % 1025 hPa 0,0 l/m
23.09.2007 13:00 21,4 C 46 % 1024 hPa 0,0 l/m
23.09.2007 14:00 23,3 C 38 % 1024 hPa 0,0 l/m
23.09.2007 15:00 23,4 C 36 % 1023 hPa 0,0 l/m
23.09.2007 16:00 22,6 C 34 % 1023 hPa 0,0 l/m
23.09.2007 17:00 22,0 C 35 % 1023 hPa 0,0 l/m
23.09.2007 18:00 21,2 C 40 % 1022 hPa 0,0 l/m
23.09.2007 19:00 18,0 C 54 % 1023 hPa 0,0 l/m
23.09.2007 20:00 15,4 C 66 % 1023 hPa 0,0 l/m
23.09.2007 21:00 14,3 C 72 % 1023 hPa 0,0 l/m
23.09.2007 22:00 13,6 C 74 % 1023 hPa 0,0 l/m
23.09.2007 23:00 13,0 C 76 % 1022 hPa 0,0 l/m
Min-Datum _ 20.09.07 21.09.07 18.09.07 -
_ Min-Zeit 07:13 15:40 01:11 -
Minimum _ 2,9 C 31 % 1010 hPa -
Max-Datum _ 17.09.07 21.09.07 19.09.07 18.09.07
_ Max-Zeit 15:12 09:42 23:27 04:19
Maximum _ 24,3 C 97 % 1026 hPa 3,0 l/m
Durchschnitt _ 12,4 C 72 % 1022 hPa #15,0 l/m

Durchschnitt Minimum Temp.11,9 C
Durchschnitt Maximum Temp.13,0 C